Time;durP1;ratioP1;P1;durP2;ratioP2;P2;SDS_P1;SDS_P2;PMS_P1;PMS_P2;Temp;Humidity;BMP_temperature;BMP_pressure;BME280_temperature;BME280_humidity;BME280_pressure;Samples;Min_cycle;Max_cycle;Signal;HPM_P1;HPM_P2
2023/05/09 00:01:12;;;;;;;11.03;6.80;;;;;;;6.29;75.14;101233.27;1461492;89;22058;-81
2023/05/09 00:03:39;;;;;;;9.17;5.70;;;;;;;6.27;74.86;101226.42;1456277;89;22062;-80
2023/05/09 00:06:06;;;;;;;11.97;6.37;;;;;;;6.30;74.68;101233.66;1459353;89;22039;-80
2023/05/09 00:08:33;;;;;;;7.53;5.27;;;;;;;6.36;74.37;101231.55;1457709;89;23308;-80
2023/05/09 00:11:00;;;;;;;9.67;5.23;;;;;;;6.38;74.41;101225.73;1454967;89;21384;-80
2023/05/09 00:13:26;;;;;;;9.70;6.43;;;;;;;6.43;74.35;101236.79;1456138;89;21392;-81
2023/05/09 00:15:52;;;;;;;10.10;5.23;;;;;;;6.35;74.42;101225.93;1457321;89;22220;-80
2023/05/09 00:18:21;;;;;;;8.40;6.10;;;;;;;6.35;74.42;101225.93;1448797;89;21384;-81
2023/05/09 00:20:48;;;;;;;9.97;6.50;;;;;;;6.37;74.67;101229.31;1455689;89;22004;-80
2023/05/09 00:23:15;;;;;;;10.73;6.43;;;;;;;6.33;74.46;101225.57;1455547;89;22382;-80
2023/05/09 00:25:42;;;;;;;11.60;5.73;;;;;;;6.30;74.36;101225.77;1452865;89;22174;-81
2023/05/09 00:28:08;;;;;;;12.80;7.00;;;;;;;6.28;74.40;101224.91;1454584;89;21346;-81
2023/05/09 00:30:34;;;;;;;10.30;6.60;;;;;;;6.30;74.72;101224.91;1463050;89;22353;-81
2023/05/09 00:33:01;;;;;;;10.47;6.50;;;;;;;6.32;74.75;101218.60;1456877;89;22012;-80
2023/05/09 00:35:27;;;;;;;10.93;5.90;;;;;;;6.33;74.41;101217.69;1463585;89;22130;-81
2023/05/09 00:37:53;;;;;;;10.70;6.67;;;;;;;6.33;74.41;101217.69;1459250;89;22205;-81
2023/05/09 00:40:20;;;;;;;10.90;5.93;;;;;;;6.38;74.33;101216.52;1452268;89;21458;-80
2023/05/09 00:42:46;;;;;;;8.90;6.73;;;;;;;6.36;74.24;101224.53;1461206;89;23025;-80
2023/05/09 00:45:13;;;;;;;9.13;5.73;;;;;;;6.39;73.68;101212.94;1454167;89;22412;-80
2023/05/09 00:47:39;;;;;;;9.53;6.03;;;;;;;6.39;73.68;101212.94;1463626;89;22469;-81
2023/05/09 00:50:07;;;;;;;9.60;6.80;;;;;;;6.43;73.86;101218.38;1457435;89;21363;-80
2023/05/09 00:52:33;;;;;;;10.50;6.97;;;;;;;6.45;73.95;101232.28;1461548;89;22225;-80
2023/05/09 00:55:01;;;;;;;8.63;5.43;;;;;;;6.43;73.81;101224.95;1451125;89;22250;-80
2023/05/09 00:57:27;;;;;;;9.60;6.53;;;;;;;6.43;73.81;101224.95;1459902;88;21601;-80
2023/05/09 00:59:53;;;;;;;7.17;4.63;;;;;;;6.50;73.91;101236.74;1458575;89;21569;-80
2023/05/09 01:02:20;;;;;;;9.80;5.80;;;;;;;6.44;74.07;101230.58;1459092;89;21465;-80
2023/05/09 01:04:47;;;;;;;10.37;6.30;;;;;;;6.42;73.70;101230.69;1445920;89;21347;-81
2023/05/09 01:07:34;;;;;;;11.10;5.93;;;;;;;6.45;74.10;101226.55;1448702;89;22168;-82
2023/05/09 01:10:08;;;;;;;12.87;6.17;;;;;;;6.47;74.11;101229.05;1450554;89;21411;-82
2023/05/09 01:12:50;;;;;;;8.33;6.03;;;;;;;6.46;74.44;101223.44;1456456;89;21429;-81
2023/05/09 01:15:27;;;;;;;6.43;4.57;;;;;;;6.42;74.06;101224.59;1457777;88;22143;-81
2023/05/09 01:18:20;;;;;;;11.43;6.83;;;;;;;6.40;74.18;101226.48;1453246;89;21850;-80
2023/05/09 01:21:07;;;;;;;8.70;5.83;;;;;;;6.32;74.14;101223.86;1457850;89;21480;-81
2023/05/09 01:24:05;;;;;;;9.47;6.43;;;;;;;6.37;74.49;101231.46;1450383;89;21303;-80
2023/05/09 01:26:42;;;;;;;15.70;5.03;;;;;;;6.38;75.01;101226.56;1457022;89;22522;-81
2023/05/09 01:29:20;;;;;;;11.27;5.93;;;;;;;6.38;74.60;101226.56;1454998;88;21584;-82
2023/05/09 01:31:48;;;;;;;6.77;4.60;;;;;;;6.34;75.24;101219.83;1452749;89;21548;-81
2023/05/09 01:34:17;;;;;;;8.03;5.47;;;;;;;6.35;75.10;101215.41;1453903;89;21392;-81
2023/05/09 01:36:45;;;;;;;9.13;5.77;;;;;;;6.41;74.66;101228.15;1455332;89;21341;-81
2023/05/09 01:39:13;;;;;;;9.67;6.30;;;;;;;6.45;74.93;101229.17;1457748;89;21521;-81
2023/05/09 01:41:39;;;;;;;8.67;6.23;;;;;;;6.51;75.43;101223.98;1448393;89;21363;-81
2023/05/09 01:44:10;;;;;;;9.03;6.33;;;;;;;6.51;75.30;101222.67;1457772;89;21525;-80
2023/05/09 01:46:38;;;;;;;8.35;5.17;;;;;;;6.49;75.40;101231.96;1446693;89;21889;-81
2023/05/09 01:49:07;;;;;;;7.57;5.60;;;;;;;6.46;74.86;101228.70;1458515;89;21296;-80
2023/05/09 01:51:35;;;;;;;7.63;5.17;;;;;;;6.44;75.24;101222.69;1462004;89;21334;-81
2023/05/09 01:54:02;;;;;;;8.73;6.17;;;;;;;6.49;75.14;101225.86;1462390;89;21406;-81
2023/05/09 01:56:31;;;;;;;11.77;5.33;;;;;;;6.48;75.03;101222.88;1465390;89;21578;-80
2023/05/09 01:58:59;;;;;;;6.43;4.80;;;;;;;6.48;75.02;101214.98;1450527;89;21443;-81
2023/05/09 02:01:27;;;;;;;8.97;5.83;;;;;;;6.48;74.80;101216.30;1459939;89;22523;-81
2023/05/09 02:03:54;;;;;;;8.30;5.97;;;;;;;6.49;74.93;101216.66;1450965;89;21429;-82
2023/05/09 02:06:23;;;;;;;9.90;6.23;;;;;;;6.48;75.18;101216.30;1448175;89;21347;-82
2023/05/09 02:08:50;;;;;;;8.33;5.73;;;;;;;6.42;75.09;101204.88;1454278;89;21384;-81
2023/05/09 02:11:16;;;;;;;11.27;6.03;;;;;;;6.42;75.51;101211.45;1459303;89;22540;-80
2023/05/09 02:13:42;;;;;;;9.30;5.87;;;;;;;6.38;75.97;101207.32;1453140;89;21392;-80
2023/05/09 02:16:09;;;;;;;9.10;6.03;;;;;;;6.38;75.77;101208.16;1463253;89;21518;-82
2023/05/09 02:18:36;;;;;;;6.63;4.87;;;;;;;6.39;76.15;101202.42;1467593;88;21362;-83
2023/05/09 02:21:03;;;;;;;7.03;4.90;;;;;;;6.43;75.94;101202.61;1457629;89;21384;-82
2023/05/09 02:23:29;;;;;;;6.37;4.97;;;;;;;6.47;75.72;101204.08;1454615;89;21429;-82
2023/05/09 02:25:56;;;;;;;8.97;5.17;;;;;;;6.49;75.56;101204.83;1467627;88;21499;-82
2023/05/09 02:28:24;;;;;;;11.77;6.43;;;;;;;6.51;75.57;101212.15;1459406;87;21450;-83
2023/05/09 02:30:52;;;;;;;8.77;5.03;;;;;;;6.53;75.31;101211.55;1453968;89;21614;-81
2023/05/09 02:33:18;;;;;;;13.87;5.47;;;;;;;6.51;75.77;101210.83;1449402;89;22220;-81
2023/05/09 02:35:46;;;;;;;7.77;5.97;;;;;;;6.53;75.14;101214.18;1461786;89;21368;-82
2023/05/09 02:38:14;;;;;;;6.57;4.90;;;;;;;6.51;75.05;101207.73;1450783;89;21378;-80
2023/05/09 02:40:43;;;;;;;6.83;5.00;;;;;;;6.51;75.33;101210.36;1450840;89;21473;-79
2023/05/09 02:43:10;;;;;;;7.13;5.40;;;;;;;6.52;75.43;101213.82;1450846;89;21347;-82
2023/05/09 02:45:36;;;;;;;7.30;4.50;;;;;;;6.54;75.19;101218.52;1462095;89;21642;-82
2023/05/09 02:48:02;;;;;;;8.47;5.80;;;;;;;6.57;74.95;101218.31;1463378;88;21569;-82
2023/05/09 02:50:28;;;;;;;8.80;5.30;;;;;;;6.61;75.21;101217.15;1454808;89;21362;-82
2023/05/09 02:52:55;;;;;;;6.67;5.00;;;;;;;6.61;75.15;101211.89;1458130;89;21384;-81
2023/05/09 02:55:21;;;;;;;6.37;5.40;;;;;;;6.63;75.04;101214.42;1455034;89;22220;-81
2023/05/09 02:57:47;;;;;;;7.77;5.30;;;;;;;6.63;74.83;101215.27;1449398;89;21436;-81
2023/05/09 03:00:14;;;;;;;7.00;5.30;;;;;;;6.62;75.13;101206.14;1452137;89;21370;-82
2023/05/09 03:02:41;;;;;;;9.13;6.00;;;;;;;6.58;74.86;101212.09;1456985;89;21443;-81
2023/05/09 03:05:08;;;;;;;7.23;4.40;;;;;;;6.53;74.74;101208.92;1449897;89;21333;-81
2023/05/09 03:07:35;;;;;;;7.03;4.70;;;;;;;6.51;75.20;101217.41;1470642;88;21488;-81
2023/05/09 03:10:01;;;;;;;6.60;5.03;;;;;;;6.54;75.81;101214.57;1459206;89;21384;-80
2023/05/09 03:12:27;;;;;;;7.33;4.77;;;;;;;6.55;75.63;101217.56;1451295;89;21529;-81
2023/05/09 03:14:53;;;;;;;8.30;5.30;;;;;;;6.59;75.63;101208.54;1450426;89;21436;-81
2023/05/09 03:17:22;;;;;;;6.87;5.00;;;;;;;6.62;75.40;101212.28;1463526;89;21621;-79
2023/05/09 03:19:48;;;;;;;9.40;5.37;;;;;;;6.62;75.25;101214.03;1458590;89;21547;-81
2023/05/09 03:22:15;;;;;;;6.77;4.87;;;;;;;6.61;74.92;101219.78;1458136;89;21348;-81
2023/05/09 03:24:41;;;;;;;9.70;4.83;;;;;;;6.62;75.03;101221.48;1466158;89;21370;-81
2023/05/09 03:27:07;;;;;;;6.77;4.73;;;;;;;6.63;75.27;101228.41;1458341;89;21400;-81
2023/05/09 03:29:33;;;;;;;9.70;4.93;;;;;;;6.65;75.75;101223.07;1459970;89;21517;-81
2023/05/09 03:32:00;;;;;;;10.17;5.13;;;;;;;6.63;75.75;101220.53;1471494;88;21407;-81
2023/05/09 03:34:26;;;;;;;7.03;4.90;;;;;;;6.63;75.19;101224.95;1453700;89;21473;-81
2023/05/09 03:36:52;;;;;;;10.03;4.87;;;;;;;6.60;75.76;101219.90;1460178;89;21415;-79
2023/05/09 03:39:18;;;;;;;6.43;4.40;;;;;;;6.60;75.84;101223.36;1460476;89;21982;-81
2023/05/09 03:41:44;;;;;;;7.03;3.90;;;;;;;6.65;75.57;101226.53;1462149;89;22264;-81
2023/05/09 03:44:10;;;;;;;6.27;4.07;;;;;;;6.67;76.05;101231.20;1456913;89;21422;-81
2023/05/09 03:46:36;;;;;;;10.43;4.80;;;;;;;6.71;75.87;101223.48;1463231;89;21990;-82
2023/05/09 03:49:03;;;;;;;7.77;4.67;;;;;;;6.73;75.58;101233.45;1446988;89;21303;-80
2023/05/09 03:51:29;;;;;;;6.07;4.17;;;;;;;6.71;75.58;101226.13;1457939;89;22330;-80
2023/05/09 03:53:56;;;;;;;6.67;4.70;;;;;;;6.74;75.77;101232.48;1451810;89;21436;-81
2023/05/09 03:56:22;;;;;;;8.57;5.17;;;;;;;6.77;75.39;101244.12;1454538;89;21488;-81
2023/05/09 03:58:49;;;;;;;9.90;5.23;;;;;;;6.75;75.60;101238.11;1458272;89;21926;-80
2023/05/09 04:01:15;;;;;;;11.40;5.17;;;;;;;6.76;75.55;101233.69;1463267;89;22316;-80
2023/05/09 04:03:41;;;;;;;9.47;5.57;;;;;;;6.71;76.04;101250.27;1463915;89;21525;-80
2023/05/09 04:06:07;;;;;;;6.13;4.47;;;;;;;6.72;75.74;101246.69;1460524;89;21436;-82
2023/05/09 04:08:34;;;;;;;6.67;4.57;;;;;;;6.73;75.79;101247.91;1465553;88;21391;-82
2023/05/09 04:11:00;;;;;;;6.60;4.13;;;;;;;6.76;75.79;101250.34;1458659;89;21414;-82
2023/05/09 04:13:28;;;;;;;7.70;5.10;;;;;;;6.79;75.62;101249.30;1460174;89;21399;-83
2023/05/09 04:15:55;;;;;;;7.97;5.40;;;;;;;6.79;75.73;101250.61;1456921;89;21391;-79
2023/05/09 04:18:21;;;;;;;6.07;4.60;;;;;;;6.77;75.87;101248.06;1476922;88;21385;-80
2023/05/09 04:20:47;;;;;;;8.33;5.60;;;;;;;6.78;75.45;101243.64;1463010;89;21503;-79
2023/05/09 04:23:13;;;;;;;6.13;4.67;;;;;;;6.77;75.42;101248.55;1458218;89;21377;-80
2023/05/09 04:25:39;;;;;;;10.90;5.40;;;;;;;6.73;75.70;101257.13;1451803;89;22264;-80
2023/05/09 04:28:06;;;;;;;6.77;4.53;;;;;;;6.71;76.36;101252.91;1458311;89;21444;-79
2023/05/09 04:30:32;;;;;;;8.43;4.90;;;;;;;6.66;76.65;101245.31;1453128;89;21341;-79
2023/05/09 04:32:58;;;;;;;7.33;4.17;;;;;;;6.70;76.34;101247.25;1455414;89;21651;-79
2023/05/09 04:35:25;;;;;;;5.50;4.13;;;;;;;6.78;76.35;101248.42;1461835;89;21429;-80
2023/05/09 04:37:52;;;;;;;7.53;4.10;;;;;;;6.87;76.18;101250.08;1456552;89;21347;-79
2023/05/09 04:40:18;;;;;;;6.70;4.60;;;;;;;6.95;76.29;101244.66;1456716;89;21517;-85
2023/05/09 04:42:44;;;;;;;6.17;3.80;;;;;;;7.09;75.88;101253.41;1460832;89;21414;-86
2023/05/09 04:45:11;;;;;;;5.87;4.60;;;;;;;7.14;75.59;101244.25;1471219;88;22284;-86
2023/05/09 04:47:37;;;;;;;6.30;4.20;;;;;;;7.23;75.56;101250.20;1456095;89;21460;-88
2023/05/09 04:50:04;;;;;;;6.40;4.77;;;;;;;7.32;75.20;101246.56;1463608;89;22213;-86
2023/05/09 04:52:31;;;;;;;5.87;4.73;;;;;;;7.42;74.89;101250.23;1460740;89;21480;-85
2023/05/09 04:54:57;;;;;;;5.60;3.87;;;;;;;7.51;74.75;101251.38;1450294;89;22474;-81
2023/05/09 04:57:23;;;;;;;6.53;3.47;;;;;;;7.59;74.45;101255.63;1458487;89;21363;-81
2023/05/09 04:59:49;;;;;;;5.47;4.00;;;;;;;7.65;74.08;101253.87;1465891;88;21576;-82
2023/05/09 05:02:15;;;;;;;6.33;3.30;;;;;;;7.76;74.31;101246.53;1446972;89;21451;-84
2023/05/09 05:04:42;;;;;;;5.57;3.33;;;;;;;7.89;73.78;101249.99;1464602;89;21462;-84
2023/05/09 05:07:08;;;;;;;8.93;4.10;;;;;;;7.97;73.15;101246.33;1455157;89;21355;-84
2023/05/09 05:09:43;;;;;;;6.90;4.37;;;;;;;8.05;72.86;101247.91;1455970;89;22315;-85
2023/05/09 05:12:12;;;;;;;9.10;3.90;;;;;;;8.18;72.60;101247.88;1453843;89;21333;-86
2023/05/09 05:14:38;;;;;;;5.30;4.03;;;;;;;8.31;72.23;101242.53;1457029;89;22432;-84
2023/05/09 05:17:05;;;;;;;12.00;4.30;;;;;;;8.42;71.96;101245.73;1447043;89;21377;-85
2023/05/09 05:19:32;;;;;;;17.17;3.77;;;;;;;8.52;71.86;101247.59;1448322;89;21537;-83
2023/05/09 05:21:58;;;;;;;5.70;4.10;;;;;;;8.61;70.89;101241.27;1451545;89;22353;-85
2023/05/09 05:24:24;;;;;;;7.70;3.50;;;;;;;8.71;70.66;101245.71;1451710;89;21340;-84
2023/05/09 05:26:50;;;;;;;4.77;3.50;;;;;;;8.78;70.31;101242.16;1457852;89;21518;-83
2023/05/09 05:29:16;;;;;;;4.93;3.60;;;;;;;8.90;70.04;101246.49;1466778;88;21407;-82
2023/05/09 05:31:43;;;;;;;7.17;3.90;;;;;;;9.00;68.79;101241.34;1455802;89;22466;-84
2023/05/09 05:34:09;;;;;;;7.07;4.40;;;;;;;9.12;69.40;101248.80;1445957;89;21385;-84
2023/05/09 05:36:35;;;;;;;11.27;3.90;;;;;;;9.22;68.76;101243.18;1457832;89;21325;-82
2023/05/09 05:39:04;;;;;;;5.27;3.23;;;;;;;9.34;68.49;101243.54;1455325;89;21274;-83
2023/05/09 05:41:30;;;;;;;5.90;3.10;;;;;;;9.44;67.45;101240.55;1450372;88;21588;-82
2023/05/09 05:43:57;;;;;;;4.97;2.80;;;;;;;9.60;67.98;101243.30;1456314;89;21435;-83
2023/05/09 05:46:23;;;;;;;6.60;3.30;;;;;;;9.75;67.30;101247.35;1458307;89;21347;-84
2023/05/09 05:48:49;;;;;;;9.83;4.03;;;;;;;9.92;67.38;101250.81;1455457;89;21606;-82
2023/05/09 05:51:15;;;;;;;5.30;3.17;;;;;;;10.11;66.16;101240.09;1459652;89;21384;-83
2023/05/09 05:53:41;;;;;;;3.47;2.63;;;;;;;10.28;66.55;101238.26;1453394;89;22338;-82
2023/05/09 05:56:07;;;;;;;5.27;3.33;;;;;;;10.44;65.31;101247.57;1458493;89;21355;-83
2023/05/09 05:58:34;;;;;;;3.30;2.97;;;;;;;10.55;64.39;101243.06;1473560;88;21540;-84
2023/05/09 06:01:01;;;;;;;4.30;2.60;;;;;;;10.64;62.01;101244.10;1460379;89;22382;-83
2023/05/09 06:03:27;;;;;;;4.03;2.90;;;;;;;10.74;61.66;101242.87;1463610;89;21517;-84
2023/05/09 06:05:54;;;;;;;4.70;3.20;;;;;;;10.81;60.68;101243.53;1460579;89;21392;-83
2023/05/09 06:08:20;;;;;;;8.67;3.30;;;;;;;10.86;60.63;101240.50;1457461;89;21348;-81
2023/05/09 06:10:46;;;;;;;6.00;2.63;;;;;;;11.00;61.20;101241.50;1461074;89;21511;-82
2023/05/09 06:13:12;;;;;;;3.87;3.37;;;;;;;11.15;60.94;101233.21;1455643;89;22486;-82
2023/05/09 06:15:39;;;;;;;3.43;2.53;;;;;;;11.32;61.74;101230.44;1466091;89;21378;-83
2023/05/09 06:18:05;;;;;;;6.43;3.00;;;;;;;11.49;61.01;101235.11;1454310;89;21532;-83
2023/05/09 06:20:32;;;;;;;4.73;2.80;;;;;;;11.64;60.92;101228.45;1457493;89;22330;-83
2023/05/09 06:22:58;;;;;;;7.37;2.43;;;;;;;11.80;59.15;101223.14;1458536;89;21348;-83
2023/05/09 06:25:24;;;;;;;4.23;2.70;;;;;;;11.94;59.87;101213.50;1457060;89;21599;-83
2023/05/09 06:27:50;;;;;;;4.53;2.53;;;;;;;12.10;57.17;101224.39;1457910;89;21399;-83
2023/05/09 06:30:16;;;;;;;24.90;2.63;;;;;;;12.23;57.50;101229.91;1444500;89;21459;-83
2023/05/09 06:32:42;;;;;;;8.93;2.07;;;;;;;12.38;56.86;101227.22;1457210;89;21392;-84
2023/05/09 06:35:09;;;;;;;2.60;2.00;;;;;;;12.40;54.07;101227.42;1453480;89;21466;-83
2023/05/09 06:37:35;;;;;;;8.13;2.90;;;;;;;12.53;55.01;101221.82;1457981;89;21444;-83
2023/05/09 06:40:01;;;;;;;8.50;2.47;;;;;;;12.66;55.64;101224.20;1452258;89;21296;-82
2023/05/09 06:42:28;;;;;;;4.23;2.43;;;;;;;12.76;54.82;101212.22;1456078;88;22294;-83
2023/05/09 06:44:55;;;;;;;9.73;2.63;;;;;;;12.87;53.61;101218.20;1451657;89;21303;-83
2023/05/09 06:47:21;;;;;;;13.27;2.83;;;;;;;12.86;53.17;101214.38;1464006;89;22205;-84
2023/05/09 06:49:47;;;;;;;11.63;3.07;;;;;;;12.92;52.94;101217.80;1456833;89;21377;-83
2023/05/09 06:52:14;;;;;;;5.03;2.67;;;;;;;13.04;54.26;101213.14;1449182;89;21355;-84
2023/05/09 06:54:42;;;;;;;7.97;2.60;;;;;;;13.16;53.32;101209.31;1453435;89;21492;-83
2023/05/09 06:57:10;;;;;;;4.77;2.73;;;;;;;13.27;53.64;101206.52;1451692;89;21489;-82
2023/05/09 06:59:37;;;;;;;4.00;2.43;;;;;;;13.44;53.29;101208.89;1452858;89;21636;-83
2023/05/09 07:02:04;;;;;;;11.23;3.10;;;;;;;13.53;52.40;101209.33;1455812;89;21458;-83
2023/05/09 07:04:30;;;;;;;5.03;1.90;;;;;;;13.67;52.75;101204.02;1460501;89;22309;-84
2023/05/09 07:06:58;;;;;;;10.00;2.83;;;;;;;13.83;49.64;101204.67;1454590;89;21513;-83
2023/05/09 07:09:26;;;;;;;4.07;2.60;;;;;;;13.97;49.13;101205.98;1454958;89;22280;-83
2023/05/09 07:11:52;;;;;;;8.23;2.27;;;;;;;14.04;49.88;101208.41;1450677;89;22285;-84
2023/05/09 07:14:19;;;;;;;6.07;2.60;;;;;;;14.13;49.64;101210.66;1462182;88;21540;-84
2023/05/09 07:16:45;;;;;;;2.10;1.90;;;;;;;14.27;49.13;101204.80;1458194;87;21362;-82
2023/05/09 07:19:12;;;;;;;4.03;2.10;;;;;;;14.35;48.85;101199.52;1451108;89;21281;-84
2023/05/09 07:21:38;;;;;;;2.67;1.90;;;;;;;14.44;48.39;101203.95;1456952;89;21496;-83
2023/05/09 07:24:05;;;;;;;7.30;2.23;;;;;;;14.58;48.35;101202.56;1453534;89;21384;-84
2023/05/09 07:26:31;;;;;;;3.87;2.67;;;;;;;14.68;47.80;101197.16;1462110;89;21238;-82
2023/05/09 07:28:57;;;;;;;9.30;2.60;;;;;;;14.77;47.82;101198.88;1459851;89;21391;-85
2023/05/09 07:31:24;;;;;;;2.60;2.40;;;;;;;14.91;47.29;101189.48;1456797;89;21436;-85
2023/05/09 07:33:50;;;;;;;2.43;2.13;;;;;;;15.04;47.57;101186.37;1460228;89;21458;-83
2023/05/09 07:36:16;;;;;;;3.40;1.87;;;;;;;15.22;46.99;101198.30;1448535;89;21318;-82
2023/05/09 07:38:42;;;;;;;10.73;2.63;;;;;;;15.38;46.03;101193.05;1458493;89;21326;-82
2023/05/09 07:41:09;;;;;;;8.10;2.47;;;;;;;15.47;46.16;101193.41;1464315;89;21571;-86
2023/05/09 07:43:35;;;;;;;4.23;2.40;;;;;;;15.57;44.41;101190.63;1454578;89;21384;-82
2023/05/09 07:46:01;;;;;;;2.60;2.27;;;;;;;15.59;45.20;101184.61;1463841;89;21532;-82
2023/05/09 07:48:27;;;;;;;2.67;2.20;;;;;;;15.66;45.16;101183.48;1462612;89;21333;-82
2023/05/09 07:50:53;;;;;;;3.87;2.30;;;;;;;15.65;43.49;101177.33;1459961;88;21524;-81
2023/05/09 07:53:19;;;;;;;1.73;1.63;;;;;;;15.69;44.14;101184.02;1461778;89;21339;-83
2023/05/09 07:55:48;;;;;;;2.63;1.83;;;;;;;15.74;43.16;101179.55;1453737;89;22153;-82
2023/05/09 07:58:13;;;;;;;8.97;2.30;;;;;;;15.90;44.11;101176.06;1453884;89;22529;-83
2023/05/09 08:00:40;;;;;;;10.77;2.37;;;;;;;16.02;42.99;101176.07;1459062;89;21399;-83
2023/05/09 08:03:06;;;;;;;3.53;2.10;;;;;;;16.08;43.20;101179.92;1457390;89;21495;-82
2023/05/09 08:05:32;;;;;;;4.57;2.10;;;;;;;16.10;43.09;101168.08;1456677;89;21377;-81
2023/05/09 08:07:59;;;;;;;2.83;1.77;;;;;;;16.34;42.59;101177.09;1460028;89;21540;-84
2023/05/09 08:10:29;;;;;;;4.17;1.87;;;;;;;16.52;42.45;101172.43;1457712;89;22206;-83
2023/05/09 08:12:53;;;;;;;2.87;1.57;;;;;;;16.54;42.39;101169.57;1467855;88;21487;-83
2023/05/09 08:15:20;;;;;;;3.23;1.77;;;;;;;16.63;41.86;101161.39;1453802;89;21428;-82
2023/05/09 08:17:46;;;;;;;5.10;2.00;;;;;;;16.58;40.78;101159.73;1456214;89;21527;-83
2023/05/09 08:20:13;;;;;;;3.80;1.80;;;;;;;16.76;40.91;101150.67;1459413;89;22405;-83
2023/05/09 08:22:40;;;;;;;5.70;1.90;;;;;;;16.78;40.68;101160.73;1451942;89;21406;-80
2023/05/09 08:25:07;;;;;;;7.67;2.20;;;;;;;16.76;41.59;101160.03;1453477;89;21466;-82
2023/05/09 08:27:34;;;;;;;5.23;2.00;;;;;;;16.84;40.21;101149.36;1459367;89;21414;-83
2023/05/09 08:30:00;;;;;;;6.97;3.60;;;;;;;17.02;41.37;101152.64;1456795;89;21535;-82
2023/05/09 08:32:26;;;;;;;22.53;8.77;;;;;;;17.27;41.89;101155.23;1459087;89;21392;-83
2023/05/09 08:34:52;;;;;;;10.93;7.20;;;;;;;17.36;40.45;101155.01;1454534;89;22456;-81
2023/05/09 08:37:18;;;;;;;12.70;7.80;;;;;;;17.15;40.25;101153.44;1461296;89;21429;-81
2023/05/09 08:39:45;;;;;;;8.03;2.87;;;;;;;17.10;41.17;101156.63;1452137;89;21622;-81
2023/05/09 08:42:14;;;;;;;3.07;2.00;;;;;;;17.22;40.91;101147.72;1457584;89;21378;-81
2023/05/09 08:44:39;;;;;;;7.07;2.50;;;;;;;17.45;39.59;101147.78;1467415;88;21436;-83
2023/05/09 08:47:07;;;;;;;3.60;2.93;;;;;;;17.63;40.73;101146.67;1456570;89;22322;-82
2023/05/09 08:49:34;;;;;;;10.80;2.93;;;;;;;17.70;40.70;101143.64;1444908;89;21384;-82
2023/05/09 08:52:01;;;;;;;5.17;2.73;;;;;;;17.46;39.88;101152.11;1449295;89;22455;-81
2023/05/09 08:54:28;;;;;;;5.00;2.37;;;;;;;17.62;39.98;101145.02;1455792;89;21392;-84
2023/05/09 08:56:55;;;;;;;5.33;2.20;;;;;;;17.68;39.78;101141.64;1456504;89;22226;-83
2023/05/09 08:59:21;;;;;;;2.20;2.00;;;;;;;17.79;39.76;101144.77;1457735;89;21340;-84
2023/05/09 09:01:48;;;;;;;6.63;2.47;;;;;;;17.91;39.54;101147.04;1448305;89;21310;-85
2023/05/09 09:04:16;;;;;;;5.03;1.97;;;;;;;18.17;37.68;101139.98;1449836;89;21569;-83
2023/05/09 09:06:42;;;;;;;4.00;2.58;;;;;;;18.24;37.08;101132.39;1456854;89;22346;-82
2023/05/09 09:16:35;;;;;;;4.17;2.12;;;;;;;19.01;36.90;101122.41;1452668;89;21525;-83
2023/05/09 09:19:04;;;;;;;2.10;1.90;;;;;;;18.81;37.29;101117.59;1379537;89;21230;-83
2023/05/09 09:21:31;;;;;;;5.58;1.92;;;;;;;18.78;36.33;101112.60;1380309;89;22265;-81
2023/05/09 09:23:58;;;;;;;4.25;1.70;;;;;;;18.88;37.37;101125.24;1386748;89;21230;-81
2023/05/09 09:32:59;;;;;;;7.28;2.20;;;;;;;18.97;34.98;101103.69;1514806;87;21588;-83
2023/05/09 09:35:25;;;;;;;4.70;1.90;;;;;;;19.10;36.92;101111.89;1501446;88;21338;-81
2023/05/09 09:38:01;;;;;;;6.90;2.17;;;;;;;19.16;36.48;101111.14;1471966;88;21449;-83
2023/05/09 09:40:25;;;;;;;4.45;2.12;;;;;;;19.39;36.55;101108.32;1458408;88;21389;-81
2023/05/09 09:42:51;;;;;;;5.75;1.92;;;;;;;19.61;36.39;101105.16;1471223;88;21463;-82
2023/05/09 09:45:19;;;;;;;8.05;2.58;;;;;;;19.72;36.02;101119.47;1474057;88;21953;-82
2023/05/09 09:47:48;;;;;;;16.17;2.70;;;;;;;19.88;35.92;101109.48;1471631;88;21404;-82
2023/05/09 09:50:18;;;;;;;3.67;1.83;;;;;;;19.97;34.41;101111.05;1466028;88;21385;-81
2023/05/09 09:52:59;;;;;;;5.97;2.60;;;;;;;19.95;34.55;101111.22;1460958;88;21544;-83
2023/05/09 09:59:27;;;;;;;7.00;2.30;;;;;;;20.17;34.58;101103.98;1555778;87;22233;-82
2023/05/09 10:02:03;;;;;;;5.87;2.22;;;;;;;19.79;35.18;101109.64;1460309;90;21463;-85
2023/05/09 10:04:38;;;;;;;5.65;1.92;;;;;;;19.99;34.93;101107.63;1412757;90;21359;-82
2023/05/09 10:07:07;;;;;;;3.40;2.17;;;;;;;20.11;34.88;101108.80;1436934;90;21470;-80
2023/05/09 10:09:50;;;;;;;2.33;1.97;;;;;;;20.33;33.36;101104.71;1473043;92;21272;-79
2023/05/09 10:12:18;;;;;;;2.33;2.00;;;;;;;20.44;32.23;101104.17;1406460;92;21467;-82
2023/05/09 10:14:46;;;;;;;4.05;2.30;;;;;;;20.39;33.62;101099.89;1473986;87;22751;-82
2023/05/09 10:17:15;;;;;;;2.92;1.67;;;;;;;20.27;33.53;101092.36;1477416;87;21495;-83
2023/05/09 10:19:46;;;;;;;4.12;2.20;;;;;;;20.18;33.71;101088.69;1469206;87;21454;-83
2023/05/09 10:22:16;;;;;;;5.05;2.05;;;;;;;20.14;33.50;101082.88;1485203;88;21570;-83
2023/05/09 10:25:06;;;;;;;4.30;2.05;;;;;;;19.97;34.08;101093.06;1475325;88;21489;-82
2023/05/09 10:27:35;;;;;;;4.53;2.13;;;;;;;20.19;33.47;101084.95;1470588;87;22215;-83
2023/05/09 10:30:09;;;;;;;2.40;1.87;;;;;;;20.40;33.04;101088.10;1480352;87;22633;-82
2023/05/09 10:32:40;;;;;;;3.22;2.65;;;;;;;20.54;32.94;101085.85;1485614;87;21405;-81
2023/05/09 10:35:09;;;;;;;3.22;1.90;;;;;;;20.70;32.81;101072.09;1491164;86;22127;-84
2023/05/09 10:37:36;;;;;;;2.20;2.00;;;;;;;20.93;32.85;101072.32;1410259;88;22189;-83
2023/05/09 10:40:04;;;;;;;3.45;2.05;;;;;;;20.64;32.37;101070.73;1533506;86;21250;-81
2023/05/09 10:42:31;;;;;;;7.87;2.10;;;;;;;20.62;32.95;101073.59;1406419;88;21300;-79
2023/05/09 10:44:57;;;;;;;4.30;1.50;;;;;;;20.50;33.21;101074.64;1416639;86;21233;-82
2023/05/09 10:47:26;;;;;;;4.58;2.10;;;;;;;20.84;33.44;101064.11;1409453;89;21204;-83
2023/05/09 10:49:53;;;;;;;6.22;2.20;;;;;;;20.62;32.78;101066.88;1424914;86;21268;-83
2023/05/09 10:52:23;;;;;;;9.28;2.72;;;;;;;20.17;32.00;101067.70;1399839;88;21258;-84
2023/05/09 10:55:00;;;;;;;4.45;2.30;;;;;;;19.89;32.43;101070.36;1403489;87;21360;-84
2023/05/09 10:57:28;;;;;;;4.70;2.08;;;;;;;19.64;33.14;101073.91;1360918;89;22192;-82
2023/05/09 10:59:56;;;;;;;4.70;2.12;;;;;;;19.62;33.35;101070.57;1361794;89;21265;-82
2023/05/09 11:02:29;;;;;;;7.92;2.90;;;;;;;19.51;33.34;101061.70;1427138;88;21383;-82
2023/05/09 11:05:16;;;;;;;8.85;2.20;;;;;;;19.45;33.42;101061.09;1464529;88;22638;-81
2023/05/09 11:07:43;;;;;;;5.83;2.22;;;;;;;19.41;33.08;101062.52;1434271;88;21574;-83
2023/05/09 11:10:16;;;;;;;5.37;2.20;;;;;;;19.36;33.45;101059.05;1451079;88;21607;-84
2023/05/09 11:12:58;;;;;;;5.17;2.58;;;;;;;19.33;33.30;101056.26;1470707;88;22922;-84
2023/05/09 11:15:26;;;;;;;3.80;1.92;;;;;;;19.35;33.28;101060.91;1466550;89;21367;-81
2023/05/09 11:18:07;;;;;;;2.47;2.08;;;;;;;19.47;32.81;101050.50;1456475;87;21487;-84
2023/05/09 11:20:35;;;;;;;8.10;2.15;;;;;;;19.95;32.36;101056.66;1389074;90;21398;-83
2023/05/09 11:23:04;;;;;;;3.77;2.60;;;;;;;20.61;32.97;101049.61;1398549;88;21312;-83
2023/05/09 11:25:31;;;;;;;5.95;3.02;;;;;;;21.17;33.14;101031.41;1411140;86;21333;-83
2023/05/09 11:28:00;;;;;;;8.08;2.85;;;;;;;21.52;31.47;101035.38;1387701;89;22128;-83
2023/05/09 11:30:42;;;;;;;4.28;2.58;;;;;;;21.78;31.52;101036.41;1415004;87;21437;-85
2023/05/09 11:33:29;;;;;;;5.42;2.58;;;;;;;21.74;31.66;101036.52;1426199;86;21531;-83
2023/05/09 11:36:30;;;;;;;10.53;2.27;;;;;;;21.58;30.71;101038.59;1583587;86;21236;-83
2023/05/09 11:39:07;;;;;;;6.60;2.10;;;;;;;21.37;29.88;101025.28;1425237;86;21288;-84
2023/05/09 11:41:47;;;;;;;4.20;2.52;;;;;;;21.56;31.44;101027.19;1464577;87;22322;-84
2023/05/09 11:44:19;;;;;;;2.40;1.82;;;;;;;21.86;30.81;101030.30;1467239;88;21772;-84
2023/05/09 11:46:48;;;;;;;10.40;2.95;;;;;;;21.77;30.38;101029.38;1465246;88;21384;-81
2023/05/09 11:49:15;;;;;;;5.58;2.37;;;;;;;21.75;30.18;101019.31;1466664;87;21464;-83
2023/05/09 11:51:42;;;;;;;3.05;2.05;;;;;;;21.87;30.13;101020.37;1469631;87;21561;-84